createdAt,value
2022-10-21T00:01:11.546Z,97638.41
2022-10-21T00:03:40.017Z,97632.28
2022-10-21T00:06:09.311Z,97649.91
2022-10-21T00:08:38.307Z,97618.09
2022-10-21T00:11:09.860Z,97615.78
2022-10-21T00:13:40.507Z,97611.63
2022-10-21T00:16:14.339Z,97610.78
2022-10-21T00:18:45.378Z,97587.97
2022-10-21T00:21:16.367Z,97595.81
2022-10-21T00:23:44.941Z,97616.13
2022-10-21T00:26:14.417Z,97592.28
2022-10-21T00:28:43.449Z,97593.31
2022-10-21T00:31:16.695Z,97599.31
2022-10-21T00:33:45.116Z,97590.66
2022-10-21T00:36:15.768Z,97581.63
2022-10-21T00:38:45.050Z,97584.97
2022-10-21T00:41:15.511Z,97585.97
2022-10-21T00:44:01.975Z,97579.97
2022-10-21T00:46:38.983Z,97586.16
2022-10-21T00:49:11.275Z,97587.63
2022-10-21T00:51:40.012Z,97585.78
2022-10-21T00:54:08.564Z,97584.81
2022-10-21T00:56:38.254Z,97585.44
2022-10-21T00:59:07.913Z,97580.78
2022-10-21T01:01:37.730Z,97571.94
2022-10-21T01:04:06.544Z,97566.63
2022-10-21T01:06:36.195Z,97567.63
2022-10-21T01:09:06.135Z,97550.97
2022-10-21T01:11:42.207Z,97564.97
2022-10-21T01:14:46.936Z,97563.31
2022-10-21T01:17:44.797Z,97551.81
2022-10-21T01:20:40.210Z,97528.34
2022-10-21T01:23:52.335Z,97532.19
2022-10-21T01:27:19.330Z,97553.16
2022-10-21T01:30:30.037Z,97530.53
2022-10-21T01:33:34.013Z,97520.72
2022-10-21T01:36:11.840Z,97527.03
2022-10-21T01:38:46.086Z,97529.53
2022-10-21T01:41:23.856Z,97536.38
2022-10-21T01:44:01.836Z,97529.03
2022-10-21T01:46:35.462Z,97526.19
2022-10-21T01:49:11.386Z,97520.69
2022-10-21T01:51:39.823Z,97514.38
2022-10-21T01:54:15.259Z,97524.03
2022-10-21T01:56:45.681Z,97522.03
2022-10-21T01:59:15.557Z,97506.38
2022-10-21T02:01:47.703Z,97514.50
2022-10-21T02:04:17.496Z,97514.31
2022-10-21T02:06:45.869Z,97510.66
2022-10-21T02:09:14.181Z,97520.31
2022-10-21T02:11:44.614Z,97517.66
2022-10-21T02:14:21.066Z,97525.50
2022-10-21T02:16:53.786Z,97524.66
2022-10-21T02:19:22.849Z,97512.97
2022-10-21T02:21:54.702Z,97508.47
2022-10-21T02:24:30.705Z,97501.50
2022-10-21T02:26:59.106Z,97509.66
2022-10-21T02:29:34.170Z,97512.34
2022-10-21T02:32:23.922Z,97505.03
2022-10-21T02:35:07.965Z,97515.34
2022-10-21T02:37:44.623Z,97510.19
2022-10-21T02:40:19.033Z,97518.97
2022-10-21T02:42:51.605Z,97518.97
2022-10-21T02:45:20.539Z,97521.47
2022-10-21T02:47:51.673Z,97519.81
2022-10-21T02:50:20.221Z,97514.16
2022-10-21T02:52:48.614Z,97508.16
2022-10-21T02:55:17.111Z,97510.47
2022-10-21T02:57:45.318Z,97512.34
2022-10-21T03:00:15.384Z,97496.34
2022-10-21T03:02:43.645Z,97472.53
2022-10-21T03:05:13.481Z,97467.38
2022-10-21T03:07:42.173Z,97468.19
2022-10-21T03:10:10.789Z,97466.53
2022-10-21T03:12:39.043Z,97481.66
2022-10-21T03:15:08.611Z,97501.50
2022-10-21T03:20:09.686Z,97511.88
2022-10-21T03:22:39.425Z,97508.53
2022-10-21T03:25:09.185Z,97504.22
2022-10-21T03:27:37.568Z,97492.22
2022-10-21T03:30:07.907Z,97495.22
2022-10-21T03:32:36.878Z,97479.59
2022-10-21T03:35:05.889Z,97469.28
2022-10-21T03:37:34.165Z,97473.13
2022-10-21T03:40:06.437Z,97479.47
2022-10-21T03:42:37.229Z,97465.47
2022-10-21T03:45:06.715Z,97474.81
2022-10-21T03:47:34.980Z,97477.66
2022-10-21T03:50:05.415Z,97469.81
2022-10-21T03:52:36.156Z,97465.78
2022-10-21T03:55:07.340Z,97466.97
2022-10-21T03:57:35.618Z,97459.31
2022-10-21T04:00:05.175Z,97462.16
2022-10-21T04:02:33.447Z,97464.16
2022-10-21T04:05:01.663Z,97452.84
2022-10-21T04:07:29.938Z,97460.50
2022-10-21T04:09:58.141Z,97464.19
2022-10-21T04:12:27.855Z,97470.69
2022-10-21T04:14:56.135Z,97470.00
2022-10-21T04:17:24.410Z,97465.88
2022-10-21T04:19:52.695Z,97459.88
2022-10-21T04:22:20.933Z,97451.88
2022-10-21T04:24:49.153Z,97458.22
2022-10-21T04:27:17.413Z,97459.19
2022-10-21T04:29:47.008Z,97461.22
2022-10-21T04:32:15.222Z,97463.88
2022-10-21T04:34:44.928Z,97456.88
2022-10-21T04:37:13.692Z,97447.22
2022-10-21T04:39:41.903Z,97445.56
2022-10-21T04:42:10.423Z,97436.91
2022-10-21T04:44:39.925Z,97437.75
2022-10-21T04:47:09.688Z,97434.25
2022-10-21T04:49:37.934Z,97425.59
2022-10-21T04:52:06.387Z,97419.47
2022-10-21T04:54:34.591Z,97424.78
2022-10-21T04:57:02.842Z,97417.78
2022-10-21T04:59:31.025Z,97408.97
2022-10-21T05:01:59.330Z,97403.66
2022-10-21T05:04:28.985Z,97402.81
2022-10-21T05:06:57.258Z,97398.34
2022-10-21T05:09:25.512Z,97398.00
2022-10-21T05:11:53.759Z,97387.34
2022-10-21T05:14:22.862Z,97380.00
2022-10-21T05:16:51.330Z,97378.34
2022-10-21T05:19:19.816Z,97378.19
2022-10-21T05:21:49.428Z,97360.41
2022-10-21T05:24:18.286Z,97353.38
2022-10-21T05:26:46.479Z,97354.06
2022-10-21T05:29:14.806Z,97350.56
2022-10-21T05:31:43.040Z,97356.72
2022-10-21T05:34:11.308Z,97378.03
2022-10-21T05:36:39.516Z,97380.69
2022-10-21T05:39:11.650Z,97354.06
2022-10-21T05:41:41.913Z,97356.06
2022-10-21T05:44:12.477Z,97367.72
2022-10-21T05:46:40.793Z,97369.53
2022-10-21T05:49:09.206Z,97363.41
2022-10-21T05:51:37.475Z,97374.22
2022-10-21T05:54:05.799Z,97374.38
2022-10-21T05:56:35.393Z,97375.19
2022-10-21T05:59:05.495Z,97370.03
2022-10-21T06:01:36.313Z,97379.72
2022-10-21T06:04:04.792Z,97377.03
2022-10-21T06:06:33.061Z,97377.03
2022-10-21T06:09:01.668Z,97385.84
2022-10-21T06:11:29.997Z,97387.53
2022-10-21T06:13:59.603Z,97385.84
2022-10-21T06:16:27.978Z,97387.69
2022-10-21T06:18:56.217Z,97403.66
2022-10-21T06:21:24.418Z,97403.66
2022-10-21T06:23:54.767Z,97403.50
2022-10-21T06:26:23.441Z,97400.84
2022-10-21T06:28:51.789Z,97397.16
2022-10-21T06:31:22.157Z,97401.31
2022-10-21T06:33:51.099Z,97402.16
2022-10-21T06:36:19.386Z,97391.16
2022-10-21T06:38:47.592Z,97400.78
2022-10-21T06:41:18.079Z,97399.97
2022-10-21T06:43:46.297Z,97394.50
2022-10-21T06:46:16.605Z,97401.63
2022-10-21T06:48:46.235Z,97396.13
2022-10-21T06:51:18.089Z,97389.81
2022-10-21T06:53:47.797Z,97392.28
2022-10-21T06:56:18.456Z,97383.34
2022-10-21T06:58:49.096Z,97384.81
2022-10-21T07:01:34.289Z,97387.13
2022-10-21T07:04:06.076Z,97372.63
2022-10-21T07:06:34.504Z,97381.97
2022-10-21T07:09:02.930Z,97376.25
2022-10-21T07:11:31.270Z,97365.09
2022-10-21T07:14:01.171Z,97374.44
2022-10-21T07:16:31.547Z,97375.59
2022-10-21T07:19:00.235Z,97370.75
2022-10-21T07:21:31.785Z,97379.22
2022-10-21T07:24:01.519Z,97383.22
2022-10-21T07:26:31.859Z,97368.53
2022-10-21T07:29:01.006Z,97371.50
2022-10-21T07:31:32.642Z,97356.00
2022-10-21T07:34:01.128Z,97346.66
2022-10-21T07:36:34.214Z,97354.47
2022-10-21T07:39:05.547Z,97351.47
2022-10-21T07:41:37.285Z,97342.28
2022-10-21T07:44:06.873Z,97335.75
2022-10-21T07:46:36.134Z,97329.25
2022-10-21T07:49:04.812Z,97324.56
2022-10-21T07:51:34.650Z,97322.56
2022-10-21T07:54:03.859Z,97322.41
2022-10-21T07:56:34.668Z,97321.19
2022-10-21T07:59:07.749Z,97306.69
2022-10-21T08:01:37.377Z,97298.69
2022-10-21T08:04:05.650Z,97298.50
2022-10-21T08:06:38.277Z,97282.06
2022-10-21T08:09:07.280Z,97291.53
2022-10-21T08:11:36.040Z,97278.69
2022-10-21T08:14:07.777Z,97273.72
2022-10-21T08:16:36.469Z,97275.16
2022-10-21T08:19:07.398Z,97278.84
2022-10-21T08:21:38.694Z,97276.00
2022-10-21T08:24:07.923Z,97279.13
2022-10-21T08:26:36.202Z,97276.09
2022-10-21T08:29:05.131Z,97266.59
2022-10-21T08:31:33.389Z,97274.69
2022-10-21T08:34:01.728Z,97268.44
2022-10-21T08:36:29.967Z,97268.38
2022-10-21T08:38:59.925Z,97265.00
2022-10-21T08:42:04.738Z,97271.47
2022-10-21T08:44:41.697Z,97269.72
2022-10-21T08:47:19.906Z,97270.84
2022-10-21T08:49:57.747Z,97264.59
2022-10-21T08:52:36.089Z,97267.16
2022-10-21T08:55:11.502Z,97263.56
2022-10-21T08:57:39.921Z,97265.31
2022-10-21T09:00:17.782Z,97255.94
2022-10-21T09:03:11.872Z,97263.38
2022-10-21T09:06:05.005Z,97253.16
2022-10-21T09:08:40.917Z,97246.25
2022-10-21T09:11:29.893Z,97248.56
2022-10-21T09:14:15.344Z,97243.50
2022-10-21T09:16:51.108Z,97240.25
2022-10-21T09:19:33.326Z,97246.88
2022-10-21T09:22:34.374Z,97253.50
2022-10-21T09:25:19.998Z,97257.47
2022-10-21T09:27:57.471Z,97255.22
2022-10-21T09:30:27.013Z,97258.22
2022-10-21T09:32:59.625Z,97256.19
2022-10-21T09:35:38.819Z,97248.19
2022-10-21T09:38:15.362Z,97257.28
2022-10-21T09:40:44.304Z,97259.56
2022-10-21T09:43:22.151Z,97268.03
2022-10-21T09:45:50.489Z,97263.31
2022-10-21T09:48:38.137Z,97267.47
2022-10-21T09:51:17.544Z,97262.56
2022-10-21T09:53:54.106Z,97264.25
2022-10-21T09:56:27.393Z,97257.69
2022-10-21T09:59:10.068Z,97257.50
2022-10-21T10:01:41.449Z,97271.28
2022-10-21T10:04:15.486Z,97271.09
2022-10-21T10:06:45.504Z,97277.94
2022-10-21T10:09:26.714Z,97279.56
2022-10-21T10:11:58.326Z,97282.72
2022-10-21T10:14:35.007Z,97300.41
2022-10-21T10:17:31.640Z,97298.38
2022-10-21T10:20:20.484Z,97304.53
2022-10-21T10:23:09.509Z,97315.03
2022-10-21T10:25:40.153Z,97317.13
2022-10-21T10:28:21.658Z,97330.31
2022-10-21T10:30:54.839Z,97340.81
2022-10-21T10:33:26.274Z,97329.13
2022-10-21T10:35:56.431Z,97342.31
2022-10-21T10:38:32.547Z,97342.31
2022-10-21T10:41:08.275Z,97340.63
2022-10-21T10:43:45.051Z,97332.44
2022-10-21T10:46:26.735Z,97325.06
2022-10-21T10:48:55.853Z,97316.84
2022-10-21T10:51:30.453Z,97295.44
2022-10-21T10:54:15.462Z,97289.72
2022-10-21T10:56:51.555Z,97283.34
2022-10-21T10:59:31.737Z,97265.47
2022-10-21T11:02:23.489Z,97258.09
2022-10-21T11:05:19.593Z,97256.22
2022-10-21T11:07:51.964Z,97264.03
2022-10-21T11:10:43.591Z,97284.44
2022-10-21T11:13:14.884Z,97314.09
2022-10-21T11:16:05.638Z,97329.31
2022-10-21T11:18:39.291Z,97341.50
2022-10-21T11:21:26.044Z,97348.50
2022-10-21T11:24:18.385Z,97355.50
2022-10-21T11:26:54.584Z,97354.31
2022-10-21T11:29:45.205Z,97361.75
2022-10-21T11:32:29.301Z,97358.94
2022-10-21T11:35:27.754Z,97362.03
2022-10-21T11:38:21.683Z,97350.94
2022-10-21T11:40:52.805Z,97357.59
2022-10-21T11:43:37.028Z,97350.00
2022-10-21T11:46:11.719Z,97338.28
2022-10-21T11:49:09.275Z,97332.16
2022-10-21T11:51:49.396Z,97333.44
2022-10-21T11:55:02.015Z,97344.97
2022-10-21T11:57:43.738Z,97351.41
2022-10-21T12:00:17.139Z,97367.06
2022-10-21T12:02:47.834Z,97350.44
2022-10-21T12:05:28.401Z,97354.16
2022-10-21T12:08:11.760Z,97347.59
2022-10-21T12:10:47.181Z,97358.56
2022-10-21T12:13:21.560Z,97357.16
2022-10-21T12:15:53.145Z,97340.69
2022-10-21T12:18:24.258Z,97321.75
2022-10-21T12:20:55.569Z,97327.56
2022-10-21T12:23:29.052Z,97341.59
2022-10-21T12:26:19.583Z,97348.59
2022-10-21T12:28:56.636Z,97352.53
2022-10-21T12:31:39.150Z,97344.09
2022-10-21T12:34:10.773Z,97360.41
2022-10-21T12:36:44.446Z,97346.38
2022-10-21T12:39:21.155Z,97347.44
2022-10-21T12:41:49.739Z,97375.91
2022-10-21T12:44:26.955Z,97364.00
2022-10-21T12:46:57.930Z,97393.28
2022-10-21T12:49:30.641Z,97401.56
2022-10-21T12:52:08.651Z,97381.38
2022-10-21T12:54:45.458Z,97370.06
2022-10-21T12:57:27.879Z,97375.47
2022-10-21T13:00:51.457Z,97361.28
2022-10-21T13:03:22.652Z,97353.47
2022-10-21T13:06:04.113Z,97352.88
2022-10-21T13:08:41.600Z,97364.66
2022-10-21T13:11:25.986Z,97350.66
2022-10-21T13:14:36.544Z,97357.09
2022-10-21T13:17:48.038Z,97371.75
2022-10-21T13:20:48.530Z,97377.34
2022-10-21T13:23:39.684Z,97371.38
2022-10-21T13:26:31.110Z,97383.16
2022-10-21T13:29:10.331Z,97376.34
2022-10-21T13:31:41.606Z,97374.19
2022-10-21T13:34:28.829Z,97369.00
2022-10-21T13:36:57.690Z,97374.41
2022-10-21T13:39:31.147Z,97376.50
2022-10-21T13:42:08.709Z,97373.00
2022-10-21T13:44:42.612Z,97369.50
2022-10-21T13:47:29.044Z,97364.53
2022-10-21T13:50:00.278Z,97371.78
2022-10-21T13:52:29.521Z,97378.63
2022-10-21T13:54:59.218Z,97375.53
2022-10-21T13:57:32.201Z,97370.56
2022-10-21T14:00:07.541Z,97373.66
2022-10-21T14:02:36.127Z,97361.69
2022-10-21T14:05:04.669Z,97368.50
2022-10-21T14:07:33.666Z,97360.63
2022-10-21T14:10:01.977Z,97361.06
2022-10-21T14:12:37.723Z,97374.50
2022-10-21T14:15:12.776Z,97378.81
2022-10-21T14:17:45.649Z,97370.56
2022-10-21T14:20:18.825Z,97365.41
2022-10-21T14:22:51.354Z,97364.19
2022-10-21T14:25:20.434Z,97366.88
2022-10-21T14:30:22.856Z,97375.31
2022-10-21T14:32:52.012Z,97366.25
2022-10-21T14:35:27.858Z,97367.25
2022-10-21T14:37:58.523Z,97364.38
2022-10-21T14:40:32.349Z,97367.06
2022-10-21T14:43:05.715Z,97365.41
2022-10-21T14:45:37.713Z,97365.41
2022-10-21T14:48:12.849Z,97358.41
2022-10-21T14:50:42.907Z,97365.00
2022-10-21T14:53:17.157Z,97364.19
2022-10-21T14:55:47.589Z,97361.69
2022-10-21T14:58:23.736Z,97369.97
2022-10-21T15:00:57.758Z,97361.28
2022-10-21T15:03:41.697Z,97366.00
2022-10-21T15:06:15.177Z,97369.09
2022-10-21T15:08:46.054Z,97362.09
2022-10-21T15:11:33.501Z,97373.66
2022-10-21T15:14:19.554Z,97373.25
2022-10-21T15:16:51.893Z,97378.59
2022-10-21T15:19:25.379Z,97376.13
2022-10-21T15:21:57.956Z,97376.34
2022-10-21T15:24:37.443Z,97369.53
2022-10-21T15:27:06.458Z,97364.34
2022-10-21T15:29:39.002Z,97364.56
2022-10-21T15:32:07.833Z,97359.59
2022-10-21T15:34:36.110Z,97363.31
2022-10-21T15:37:04.517Z,97359.16
2022-10-21T15:39:32.913Z,97349.88
2022-10-21T15:42:01.798Z,97355.44
2022-10-21T15:44:31.663Z,97349.66
2022-10-21T15:47:05.646Z,97348.22
2022-10-21T15:49:37.957Z,97355.81
2022-10-21T15:52:06.574Z,97363.28
2022-10-21T15:54:34.997Z,97369.25
2022-10-21T15:57:12.810Z,97371.50
2022-10-21T15:59:41.085Z,97371.06
2022-10-21T16:02:16.552Z,97369.22
2022-10-21T16:04:46.303Z,97380.72
2022-10-21T16:07:22.991Z,97383.78
2022-10-21T16:09:51.771Z,97381.50
2022-10-21T16:12:22.234Z,97379.22
2022-10-21T16:14:50.700Z,97384.78
2022-10-21T16:17:20.825Z,97383.31
2022-10-21T16:19:49.314Z,97383.31
2022-10-21T16:22:23.654Z,97373.81
2022-10-21T16:24:52.145Z,97374.88
2022-10-21T16:27:26.573Z,97381.44
2022-10-21T16:30:17.847Z,97373.78
2022-10-21T16:32:47.847Z,97380.19
2022-10-21T16:35:17.735Z,97369.47
2022-10-21T16:37:46.569Z,97369.66
2022-10-21T16:40:19.947Z,97373.16
2022-10-21T16:42:48.602Z,97377.06
2022-10-21T16:45:17.739Z,97379.94
2022-10-21T16:47:52.812Z,97380.34
2022-10-21T16:50:24.617Z,97371.47
2022-10-21T16:52:53.386Z,97386.09
2022-10-21T16:55:21.696Z,97389.81
2022-10-21T16:57:50.101Z,97392.09
2022-10-21T17:00:19.159Z,97385.03
2022-10-21T17:02:50.305Z,97375.75
2022-10-21T17:05:19.271Z,97391.19
2022-10-21T17:07:47.776Z,97400.28
2022-10-21T17:10:16.344Z,97400.47
2022-10-21T17:12:44.951Z,97409.53
2022-10-21T17:15:16.840Z,97406.22
2022-10-21T17:17:45.224Z,97403.72
2022-10-21T17:20:15.017Z,97408.25
2022-10-21T17:22:43.618Z,97404.13
2022-10-21T17:25:13.381Z,97403.69
2022-10-21T17:27:42.003Z,97410.91
2022-10-21T17:30:12.375Z,97412.94
2022-10-21T17:35:19.621Z,97405.31
2022-10-21T17:37:49.072Z,97403.47
2022-10-21T17:40:20.914Z,97402.63
2022-10-21T17:42:49.716Z,97396.63
2022-10-21T17:45:19.918Z,97399.94
2022-10-21T17:47:49.753Z,97385.91
2022-10-21T17:50:23.696Z,97392.28
2022-10-21T17:52:52.705Z,97386.28
2022-10-21T17:55:21.911Z,97385.69
2022-10-21T17:57:50.306Z,97380.72
2022-10-21T18:00:18.896Z,97402.34
2022-10-21T18:02:47.363Z,97409.91
2022-10-21T18:05:16.105Z,97423.47
2022-10-21T18:07:45.828Z,97419.34
2022-10-21T18:10:14.155Z,97416.66
2022-10-21T18:12:42.754Z,97416.66
2022-10-21T18:15:12.398Z,97405.13
2022-10-21T18:17:41.259Z,97394.59
2022-10-21T18:20:11.327Z,97394.78
2022-10-21T18:22:40.056Z,97401.00
2022-10-21T18:25:11.117Z,97392.50
2022-10-21T18:27:40.300Z,97398.69
2022-10-21T18:30:10.491Z,97393.53
2022-10-21T18:32:39.627Z,97400.13
2022-10-21T18:35:09.827Z,97401.97
2022-10-21T18:37:38.521Z,97395.16
2022-10-21T18:40:11.031Z,97398.22
2022-10-21T18:42:39.451Z,97387.69
2022-10-21T18:45:09.155Z,97380.66
2022-10-21T18:47:37.854Z,97379.00
2022-10-21T18:50:08.450Z,97388.09
2022-10-21T18:52:36.860Z,97380.25
2022-10-21T18:57:36.544Z,97371.75
2022-10-21T19:00:07.687Z,97371.94
2022-10-21T19:02:36.727Z,97372.16
2022-10-21T19:05:06.327Z,97367.81
2022-10-21T19:07:34.675Z,97362.47
2022-10-21T19:10:03.062Z,97360.97
2022-10-21T19:12:31.435Z,97373.56
2022-10-21T19:15:01.152Z,97373.75
2022-10-21T19:17:29.511Z,97375.59
2022-10-21T19:19:59.325Z,97373.94
2022-10-21T19:22:27.762Z,97374.94
2022-10-21T19:24:56.146Z,97369.78
2022-10-21T19:27:24.563Z,97363.63
2022-10-21T19:29:53.084Z,97361.13
2022-10-21T19:32:22.738Z,97356.97
2022-10-21T19:34:51.116Z,97366.88
2022-10-21T19:37:19.489Z,97362.75
2022-10-21T19:39:47.794Z,97360.25
2022-10-21T19:42:16.157Z,97366.81
2022-10-21T19:44:44.438Z,97364.31
2022-10-21T19:47:12.733Z,97362.69
2022-10-21T19:49:42.353Z,97370.91
2022-10-21T19:52:10.645Z,97364.91
2022-10-21T19:54:39.016Z,97381.16
2022-10-21T19:57:07.452Z,97380.53
2022-10-21T19:59:35.770Z,97385.22
2022-10-21T20:02:04.160Z,97377.59
2022-10-21T20:04:35.211Z,97394.88
2022-10-21T20:07:05.871Z,97390.88
2022-10-21T20:09:37.866Z,97394.97
2022-10-21T20:12:07.378Z,97385.50
2022-10-21T20:14:35.742Z,97382.13
2022-10-21T20:17:04.129Z,97374.50
2022-10-21T20:19:32.521Z,97381.06
2022-10-21T20:22:00.842Z,97383.09
2022-10-21T20:24:30.649Z,97385.28
2022-10-21T20:27:01.391Z,97393.50
2022-10-21T20:29:30.819Z,97392.25
2022-10-21T20:31:59.304Z,97392.25
2022-10-21T20:34:27.989Z,97396.13
2022-10-21T20:36:56.370Z,97388.47
2022-10-21T20:39:24.769Z,97393.19
2022-10-21T20:41:54.565Z,97380.19
2022-10-21T20:44:23.025Z,97370.69
2022-10-21T20:46:51.451Z,97369.88
2022-10-21T20:49:19.774Z,97373.75
2022-10-21T20:51:48.167Z,97383.00
2022-10-21T20:54:20.378Z,97376.16
2022-10-21T20:56:48.809Z,97372.03
2022-10-21T20:59:18.534Z,97367.88
2022-10-21T21:01:48.638Z,97377.94
2022-10-21T21:04:20.707Z,97376.47
2022-10-21T21:06:51.267Z,97380.31
2022-10-21T21:09:43.759Z,97382.56
2022-10-21T21:12:09.715Z,97370.75
2022-10-21T21:14:39.691Z,97362.09
2022-10-21T21:17:08.201Z,97366.00
2022-10-21T21:19:36.600Z,97358.34
2022-10-21T21:22:05.100Z,97364.88
2022-10-21T21:24:33.942Z,97370.41
2022-10-21T21:27:02.322Z,97367.91
2022-10-21T21:29:30.686Z,97367.28
2022-10-21T21:32:00.443Z,97365.00
2022-10-21T21:34:28.980Z,97357.78
2022-10-21T21:36:57.293Z,97349.16
2022-10-21T21:39:25.891Z,97348.50
2022-10-21T21:41:54.318Z,97349.50
2022-10-21T21:44:23.088Z,97355.03
2022-10-21T21:46:51.397Z,97362.22
2022-10-21T21:49:21.174Z,97356.22
2022-10-21T21:51:49.579Z,97346.75
2022-10-21T21:54:17.980Z,97338.03
2022-10-21T21:56:46.930Z,97320.38
2022-10-21T21:59:15.296Z,97324.06
2022-10-21T22:01:43.793Z,97324.25
2022-10-21T22:04:12.277Z,97331.59
2022-10-21T22:06:42.119Z,97323.59
2022-10-21T22:09:12.103Z,97318.44
2022-10-21T22:11:40.602Z,97319.47
2022-10-21T22:14:09.068Z,97310.59
2022-10-21T22:16:37.800Z,97314.50
2022-10-21T22:19:06.384Z,97307.28
2022-10-21T22:21:34.739Z,97304.81
2022-10-21T22:24:04.558Z,97308.50
2022-10-21T22:26:32.954Z,97308.50
2022-10-21T22:29:01.313Z,97301.50
2022-10-21T22:31:30.869Z,97303.34
2022-10-21T22:34:01.283Z,97296.53
2022-10-21T22:36:30.207Z,97294.06
2022-10-21T22:38:58.870Z,97302.25
2022-10-21T22:41:28.806Z,97313.13
2022-10-21T22:43:57.336Z,97318.63
2022-10-21T22:46:41.195Z,97318.63
2022-10-21T22:49:11.556Z,97311.84
2022-10-21T22:51:40.145Z,97308.31
2022-10-21T22:54:19.175Z,97307.66
2022-10-21T22:56:58.998Z,97312.19
2022-10-21T22:59:27.482Z,97321.38
2022-10-21T23:01:55.904Z,97328.41
2022-10-21T23:04:24.303Z,97317.91
2022-10-21T23:06:52.639Z,97323.44
2022-10-21T23:09:21.036Z,97325.25
2022-10-21T23:11:49.412Z,97331.63
2022-10-21T23:14:19.314Z,97329.94
2022-10-21T23:16:47.772Z,97328.31
2022-10-21T23:19:16.221Z,97332.81
2022-10-21T23:21:44.522Z,97323.16
2022-10-21T23:24:13.254Z,97334.84
2022-10-21T23:26:41.643Z,97335.03
2022-10-21T23:29:09.962Z,97321.22
2022-10-21T23:31:39.648Z,97330.06
2022-10-21T23:34:07.942Z,97338.88
2022-10-21T23:36:36.884Z,97342.38
2022-10-21T23:39:05.948Z,97331.69
2022-10-21T23:41:34.213Z,97336.19
2022-10-21T23:44:02.494Z,97340.56
2022-10-21T23:46:30.794Z,97354.91
2022-10-21T23:49:00.554Z,97342.56
2022-10-21T23:51:29.102Z,97341.91
2022-10-21T23:53:57.400Z,97340.25
2022-10-21T23:56:25.821Z,97338.78
2022-10-21T23:58:54.117Z,97345.59
